Terminal Aerodrome Forecast
Issued by NWS Grand Junction, CO

Home | Current Version | Previous Version | Text Only | Print | Product List | Glossary On
Versions: 1 2 3 4 5 6 7 8 9 10 11 12 13 14 15 16 17 18 19 20 21 22 23 24 25 26 27 28 29 30 31 32 33 34 35
000
FTUS45 KGJT 041120
TAFGJT
TAF
KGJT 041120Z 0412/0512 10014KT P6SM SCT120 BKN160
     FM041900 28010KT P6SM BKN100
     FM042100 28010KT P6SM VCSH SCT090 BKN150
     FM050200 14012KT P6SM BKN150
     FM050700 10012KT P6SM SCT150=

USA.gov is the U.S. government's official web portal to all federal, state and local government web resources and services.